KCUB/CUB METAR and TAF weather

Enter ICAO airport designator
Station Type Date Time Source
KCUB METAR 2020/03/28 20:53 UTC NOAA

KCUB 282053Z AUTO 22011G18KT 10SM FEW110 31/16 A2992 RMK AO2 SLP130 T03060156 56012


Station Type Date Time Source
KCUB Decoded METAR 2020/03/28 20:53 UTC NOAA

OWENS DOWNTOWN AIRPORT, SC, United States (KCUB) 33-58N 081-00W 56M
Mar 28, 2020 - 04:53 PM EDT / 2020.03.28 2053 UTC
Wind: from the SW (220 degrees) at 13 MPH (11 KT) gusting to 21 MPH (18 KT):0
Visibility: 10 mile(s):0
Sky conditions: mostly clear
Temperature: 87.1 F (30.6 C)
Dew Point: 60.1 F (15.6 C)
Relative Humidity: 40%
Pressure (altimeter): 29.92 in. Hg (1013 hPa)
Pressure tendency: 0.04 inches (1.2 hPa) lower than three hours ago
ob: KCUB 282053Z AUTO 22011G18KT 10SM FEW110 31/16 A2992 RMK AO2 SLP130 T03060156 56012
cycle: 21

Station Type Date Time Source
KCUB TAF 2020/03/28 21:48 UTC NOAA

TAF
AMD KCUB 282046Z 2821/2918 23012G20KT P6SM SCT250
FM282300 22007KT P6SM FEW250
FM291000 22003KT P6SM FEW020 SCT250
FM291400 24010KT P6SM SCT025 BKN250

Example: see airport list